Time;durP1;ratioP1;P1;durP2;ratioP2;P2;SDS_P1;SDS_P2;PMS_P1;PMS_P2;Temp;Humidity;BMP_temperature;BMP_pressure;BME280_temperature;BME280_humidity;BME280_pressure;Samples;Min_cycle;Max_cycle;Signal;HPM_P1;HPM_P2
2023/10/26 00:01:07;;;;;;;;;;;;;;;28.31;24.45;96461.38;4907967;29;19959;-90
2023/10/26 00:03:33;;;;;;;;;;;;;;;28.39;24.42;96465.28;4911587;29;19930;-90
2023/10/26 00:05:59;;;;;;;;;;;;;;;28.19;24.95;96469.00;4908336;29;20017;-90
2023/10/26 00:08:25;;;;;;;;;;;;;;;28.00;25.21;96456.50;4900566;29;19923;-91
2023/10/26 00:10:51;;;;;;;;;;;;;;;27.85;25.22;96458.63;4909555;29;20022;-90
2023/10/26 00:13:17;;;;;;;;;;;;;;;27.79;25.47;96455.00;4906752;29;20061;-92
2023/10/26 00:15:43;;;;;;;;;;;;;;;27.19;26.42;96450.22;4909143;29;19981;-90
2023/10/26 00:18:09;;;;;;;;;;;;;;;26.94;27.02;96459.34;4903339;29;19954;-90
2023/10/26 00:20:35;;;;;;;;;;;;;;;27.62;26.00;96451.22;4909260;29;19923;-89
2023/10/26 00:23:02;;;;;;;;;;;;;;;27.97;25.34;96446.19;4903762;29;19930;-90
2023/10/26 00:25:28;;;;;;;;;;;;;;;28.27;25.23;96452.34;4901996;29;20311;-90
2023/10/26 00:27:54;;;;;;;;;;;;;;;28.57;24.72;96445.13;4914453;29;20013;-90
2023/10/26 00:30:20;;;;;;;;;;;;;;;28.74;24.35;96434.72;4915340;29;19938;-90
2023/10/26 00:32:46;;;;;;;;;;;;;;;28.69;24.67;96435.47;4917805;29;20355;-90
2023/10/26 00:35:12;;;;;;;;;;;;;;;28.88;24.34;96439.44;4915669;29;19923;-91
2023/10/26 00:37:38;;;;;;;;;;;;;;;28.90;24.38;96430.44;4916418;29;19926;-90
2023/10/26 00:40:04;;;;;;;;;;;;;;;28.84;24.20;96436.09;4916499;29;19923;-90
2023/10/26 00:42:30;;;;;;;;;;;;;;;28.87;24.16;96428.66;4914861;29;19931;-90
2023/10/26 00:44:56;;;;;;;;;;;;;;;29.13;24.04;96441.34;4909971;29;19923;-90
2023/10/26 00:47:24;;;;;;;;;;;;;;;29.40;23.67;96434.28;4916522;29;19927;-90
2023/10/26 00:49:50;;;;;;;;;;;;;;;29.57;23.39;96437.16;4915005;29;19962;-90
2023/10/26 00:52:16;;;;;;;;;;;;;;;29.52;23.37;96443.56;4915812;29;20460;-90
2023/10/26 00:54:43;;;;;;;;;;;;;;;29.23;23.81;96436.28;4914273;29;19950;-90
2023/10/26 00:57:09;;;;;;;;;;;;;;;28.67;24.53;96441.63;4910131;29;19923;-90
2023/10/26 00:59:35;;;;;;;;;;;;;;;28.78;24.36;96448.63;4909683;29;20296;-90
2023/10/26 01:02:02;;;;;;;;;;;;;;;28.95;24.24;96444.59;4916901;29;20300;-90
2023/10/26 01:04:28;;;;;;;;;;;;;;;29.13;24.32;96455.47;4915129;29;19934;-91
2023/10/26 01:06:54;;;;;;;;;;;;;;;29.36;24.04;96447.88;4928055;29;19923;-90
2023/10/26 01:09:21;;;;;;;;;;;;;;;29.50;23.75;96444.06;4905299;29;19923;-90
2023/10/26 01:11:47;;;;;;;;;;;;;;;29.54;23.16;96450.25;4906691;29;19992;-90
2023/10/26 01:14:13;;;;;;;;;;;;;;;29.56;22.52;96444.09;4911360;29;19930;-90
2023/10/26 01:16:39;;;;;;;;;;;;;;;29.35;23.19;96440.69;4904488;29;19930;-92
2023/10/26 01:19:06;;;;;;;;;;;;;;;29.35;22.96;96433.00;4907964;29;19931;-90
2023/10/26 01:21:46;;;;;;;;;;;;;;;28.14;24.09;96429.44;4907505;29;20009;-90
2023/10/26 01:24:12;;;;;;;;;;;;;;;27.43;25.25;96419.75;4910744;29;19931;-90
2023/10/26 01:26:40;;;;;;;;;;;;;;;28.07;24.22;96419.38;4912782;29;19925;-90
2023/10/26 01:29:06;;;;;;;;;;;;;;;28.11;24.39;96416.31;4910848;29;19962;-91
2023/10/26 01:31:32;;;;;;;;;;;;;;;28.18;23.87;96413.81;4912925;29;19915;-90
2023/10/26 01:33:58;;;;;;;;;;;;;;;28.28;24.18;96411.56;4902808;29;19924;-90
2023/10/26 01:36:25;;;;;;;;;;;;;;;28.68;23.75;96411.34;4909532;29;20300;-90
2023/10/26 01:38:51;;;;;;;;;;;;;;;28.91;23.59;96412.22;4907959;29;19919;-89
2023/10/26 01:41:17;;;;;;;;;;;;;;;29.15;23.18;96421.81;4919434;29;19924;-90
2023/10/26 01:43:43;;;;;;;;;;;;;;;29.34;23.04;96408.81;4908125;29;19919;-90
2023/10/26 01:46:09;;;;;;;;;;;;;;;28.92;23.49;96419.41;4908790;29;19927;-89
2023/10/26 01:48:35;;;;;;;;;;;;;;;28.08;24.08;96418.06;4909010;29;19934;-90
2023/10/26 01:51:01;;;;;;;;;;;;;;;27.52;25.20;96413.94;4914864;29;20006;-89
2023/10/26 01:53:27;;;;;;;;;;;;;;;27.29;25.50;96415.75;4907245;29;20038;-89
2023/10/26 01:55:53;;;;;;;;;;;;;;;27.65;25.24;96414.34;4910243;29;19924;-90
2023/10/26 01:58:19;;;;;;;;;;;;;;;28.27;24.64;96398.72;4892491;29;20368;-89
2023/10/26 02:00:45;;;;;;;;;;;;;;;28.40;24.64;96397.00;4908940;29;19919;-90
2023/10/26 02:03:11;;;;;;;;;;;;;;;28.49;24.57;96399.66;4916749;29;19972;-90
2023/10/26 02:05:37;;;;;;;;;;;;;;;28.77;23.94;96391.34;4903620;29;19923;-90
2023/10/26 02:08:03;;;;;;;;;;;;;;;28.47;24.09;96387.31;4900120;29;19941;-90
2023/10/26 02:10:30;;;;;;;;;;;;;;;28.02;24.46;96381.38;4916844;29;20032;-90
2023/10/26 02:12:56;;;;;;;;;;;;;;;27.75;25.15;96373.41;4915673;29;19923;-90
2023/10/26 02:15:22;;;;;;;;;;;;;;;27.46;25.84;96373.66;4923716;29;19971;-90
2023/10/26 02:17:48;;;;;;;;;;;;;;;27.69;25.22;96372.59;4910254;29;19928;-90
2023/10/26 02:20:16;;;;;;;;;;;;;;;27.89;25.19;96366.84;4916061;29;20235;-89
2023/10/26 02:22:42;;;;;;;;;;;;;;;27.85;25.13;96365.53;4914093;29;19933;-90
2023/10/26 02:25:08;;;;;;;;;;;;;;;28.18;24.96;96377.13;4912739;29;20361;-89
2023/10/26 02:27:34;;;;;;;;;;;;;;;28.25;25.00;96362.53;4911211;29;19969;-91
2023/10/26 02:30:01;;;;;;;;;;;;;;;28.42;24.46;96362.66;4912030;29;20022;-90
2023/10/26 02:32:27;;;;;;;;;;;;;;;28.65;23.96;96353.81;4917414;29;20324;-89
2023/10/26 02:34:53;;;;;;;;;;;;;;;28.80;24.29;96358.50;4919386;29;19969;-90
2023/10/26 02:37:19;;;;;;;;;;;;;;;28.92;24.08;96352.38;4915476;29;20022;-90
2023/10/26 02:39:45;;;;;;;;;;;;;;;28.90;24.15;96352.09;4902208;29;20384;-90
2023/10/26 02:42:12;;;;;;;;;;;;;;;28.58;24.42;96353.50;4915575;29;20300;-90
2023/10/26 02:44:38;;;;;;;;;;;;;;;28.40;24.74;96345.44;4915260;29;19930;-91
2023/10/26 02:47:04;;;;;;;;;;;;;;;27.70;25.86;96340.28;4912499;29;19923;-90
2023/10/26 02:49:33;;;;;;;;;;;;;;;27.32;26.28;96333.03;4917137;29;19927;-90
2023/10/26 02:51:59;;;;;;;;;;;;;;;27.09;26.82;96330.47;4918085;29;19923;-90
2023/10/26 02:54:28;;;;;;;;;;;;;;;26.50;27.64;96324.38;4919042;29;19930;-90
2023/10/26 02:56:54;;;;;;;;;;;;;;;26.12;28.67;96333.84;4911603;29;19929;-90
2023/10/26 02:59:20;;;;;;;;;;;;;;;26.08;28.84;96324.81;4910730;29;20298;-90
2023/10/26 03:01:46;;;;;;;;;;;;;;;25.82;29.08;96324.69;4891429;29;20345;-90
2023/10/26 03:04:12;;;;;;;;;;;;;;;26.86;27.47;96318.22;4915368;29;20022;-91
2023/10/26 03:06:39;;;;;;;;;;;;;;;27.18;27.12;96324.69;4916061;29;20022;-91
2023/10/26 03:09:08;;;;;;;;;;;;;;;27.26;26.93;96320.91;4914092;29;20358;-91
2023/10/26 03:11:35;;;;;;;;;;;;;;;27.91;26.01;96316.34;4910541;29;19930;-91
2023/10/26 03:14:01;;;;;;;;;;;;;;;27.91;25.80;96313.53;4911099;29;19930;-91
2023/10/26 03:16:27;;;;;;;;;;;;;;;27.52;25.97;96309.66;4911996;29;20010;-90
2023/10/26 03:18:53;;;;;;;;;;;;;;;27.24;26.82;96317.81;4915890;29;20391;-91
2023/10/26 03:21:20;;;;;;;;;;;;;;;27.58;26.32;96312.53;4911743;29;19973;-89
2023/10/26 03:23:52;;;;;;;;;;;;;;;27.14;26.73;96307.22;4915481;29;20383;-89
2023/10/26 03:26:19;;;;;;;;;;;;;;;27.09;26.99;96314.34;4918871;29;19970;-90
2023/10/26 03:28:45;;;;;;;;;;;;;;;25.58;29.19;96314.84;4916605;29;21009;-91
2023/10/26 03:31:11;;;;;;;;;;;;;;;26.44;28.05;96312.28;4912488;29;19923;-90
2023/10/26 03:33:38;;;;;;;;;;;;;;;27.36;26.48;96318.69;4907242;29;19930;-90
2023/10/26 03:36:04;;;;;;;;;;;;;;;28.16;25.43;96333.75;4913961;29;19923;-90
2023/10/26 03:38:30;;;;;;;;;;;;;;;28.24;25.25;96323.53;4913319;29;20347;-90
2023/10/26 03:40:56;;;;;;;;;;;;;;;28.54;25.25;96327.53;4925977;29;19923;-91
2023/10/26 03:43:22;;;;;;;;;;;;;;;28.93;24.46;96331.31;4913132;29;19930;-91
2023/10/26 03:45:48;;;;;;;;;;;;;;;29.20;24.27;96335.53;4918426;29;19923;-92
2023/10/26 03:48:14;;;;;;;;;;;;;;;29.18;23.97;96323.94;4918752;29;20404;-91
2023/10/26 03:50:41;;;;;;;;;;;;;;;28.90;24.27;96311.78;4915591;29;19928;-90
2023/10/26 03:53:07;;;;;;;;;;;;;;;28.96;24.03;96316.19;4912603;29;20376;-90
2023/10/26 03:55:33;;;;;;;;;;;;;;;28.85;24.14;96307.66;4911782;29;19920;-90
2023/10/26 03:57:59;;;;;;;;;;;;;;;28.54;24.38;96310.59;4918371;29;20458;-90
2023/10/26 04:00:25;;;;;;;;;;;;;;;28.59;24.74;96302.16;4915356;29;19930;-91
2023/10/26 04:02:51;;;;;;;;;;;;;;;28.46;24.44;96306.69;4899376;29;20006;-91
2023/10/26 04:05:17;;;;;;;;;;;;;;;28.80;24.44;96294.28;4899741;29;20399;-90
2023/10/26 04:07:43;;;;;;;;;;;;;;;28.91;24.30;96299.97;4918154;29;19978;-90
2023/10/26 04:10:09;;;;;;;;;;;;;;;28.79;24.34;96295.56;4910158;29;19919;-90
2023/10/26 04:12:35;;;;;;;;;;;;;;;28.98;24.28;96287.41;4907719;29;19930;-90
2023/10/26 04:15:02;;;;;;;;;;;;;;;29.20;24.14;96285.41;4910116;29;19919;-91
2023/10/26 04:17:28;;;;;;;;;;;;;;;29.42;23.96;96285.44;4904805;29;19928;-91
2023/10/26 04:19:54;;;;;;;;;;;;;;;29.61;23.79;96282.09;4907078;29;20524;-94
2023/10/26 04:22:20;;;;;;;;;;;;;;;29.14;23.97;96281.78;4910245;29;19991;-89
2023/10/26 04:24:46;;;;;;;;;;;;;;;28.30;24.81;96265.06;4907726;29;19979;-90
2023/10/26 04:27:12;;;;;;;;;;;;;;;27.98;25.38;96284.09;4904835;29;20402;-92
2023/10/26 04:29:38;;;;;;;;;;;;;;;28.27;25.14;96291.47;4903456;29;19924;-93
2023/10/26 04:32:06;;;;;;;;;;;;;;;28.78;24.89;96296.84;4903084;29;20018;-94
2023/10/26 04:34:32;;;;;;;;;;;;;;;29.33;24.40;96301.88;4914035;29;19923;-92
2023/10/26 04:36:58;;;;;;;;;;;;;;;29.62;24.08;96303.44;4905138;29;19946;-92
2023/10/26 04:39:24;;;;;;;;;;;;;;;29.48;23.91;96299.56;4907681;29;19927;-94
2023/10/26 04:41:50;;;;;;;;;;;;;;;29.31;24.31;96301.63;4901500;29;20030;-93
2023/10/26 04:44:18;;;;;;;;;;;;;;;29.43;24.31;96298.28;4906205;29;20017;-93
2023/10/26 04:46:44;;;;;;;;;;;;;;;29.44;24.08;96301.91;4907799;29;20290;-92
2023/10/26 04:49:10;;;;;;;;;;;;;;;29.09;24.31;96301.56;4904946;29;19935;-93
2023/10/26 04:51:36;;;;;;;;;;;;;;;29.23;24.25;96295.72;4909384;29;20006;-93
2023/10/26 04:54:02;;;;;;;;;;;;;;;29.50;24.07;96296.25;4907772;29;19951;-93
2023/10/26 04:56:28;;;;;;;;;;;;;;;29.77;23.92;96299.09;4910121;29;19923;-94
2023/10/26 04:58:54;;;;;;;;;;;;;;;29.94;23.31;96296.25;4906982;29;19919;-89
2023/10/26 05:01:20;;;;;;;;;;;;;;;29.99;23.01;96301.91;4906213;29;19927;-94
2023/10/26 05:03:46;;;;;;;;;;;;;;;29.99;22.85;96295.47;4901387;29;20438;-93
2023/10/26 05:06:13;;;;;;;;;;;;;;;30.00;22.98;96294.19;4913276;29;19923;-94
2023/10/26 05:08:39;;;;;;;;;;;;;;;29.93;22.75;96300.38;4916917;29;20400;-93
2023/10/26 05:11:05;;;;;;;;;;;;;;;29.88;23.16;96303.97;4913686;29;19928;-94
2023/10/26 05:13:31;;;;;;;;;;;;;;;29.90;23.18;96304.22;4917467;29;19920;-94
2023/10/26 05:15:57;;;;;;;;;;;;;;;29.99;23.09;96306.81;4913332;29;19931;-93
2023/10/26 05:18:23;;;;;;;;;;;;;;;29.93;23.16;96294.69;4914353;29;20414;-94
2023/10/26 05:20:49;;;;;;;;;;;;;;;29.82;23.07;96294.72;4918202;29;19950;-94
2023/10/26 05:23:15;;;;;;;;;;;;;;;29.35;23.73;96302.91;4915810;29;20299;-93
2023/10/26 05:25:41;;;;;;;;;;;;;;;28.90;24.18;96304.06;4913467;29;19930;-94
2023/10/26 05:28:07;;;;;;;;;;;;;;;28.83;24.22;96318.69;4884968;29;19935;-94
2023/10/26 05:30:34;;;;;;;;;;;;;;;29.16;24.31;96329.31;4914484;29;19923;-93
2023/10/26 05:33:00;;;;;;;;;;;;;;;27.63;26.39;96354.09;4907424;29;19941;-94
2023/10/26 05:35:26;;;;;;;;;;;;;;;28.05;25.85;96369.06;4900054;29;20379;-95
2023/10/26 05:37:52;;;;;;;;;;;;;;;28.50;25.46;96358.81;4909054;29;19978;-93
2023/10/26 05:40:18;;;;;;;;;;;;;;;28.99;24.43;96359.56;4911019;29;20285;-92
2023/10/26 05:42:44;;;;;;;;;;;;;;;29.18;24.67;96357.88;4906691;29;19959;-92
2023/10/26 05:45:11;;;;;;;;;;;;;;;29.58;24.08;96348.97;4910521;29;19987;-92
2023/10/26 05:47:37;;;;;;;;;;;;;;;29.03;24.67;96346.78;4906133;29;20002;-93
2023/10/26 05:50:04;;;;;;;;;;;;;;;28.41;25.63;96350.56;4909290;29;20362;-96
2023/10/26 05:52:30;;;;;;;;;;;;;;;28.35;25.70;96344.13;4913700;29;19934;-95
2023/10/26 05:54:56;;;;;;;;;;;;;;;28.75;25.37;96341.00;4907086;29;20388;-96
2023/10/26 05:57:22;;;;;;;;;;;;;;;28.51;25.41;96345.50;4900993;29;19920;-96
2023/10/26 05:59:48;;;;;;;;;;;;;;;28.84;24.95;96344.91;4899933;29;19920;-96
2023/10/26 06:02:14;;;;;;;;;;;;;;;28.80;25.18;96341.56;4903392;29;20353;-96
2023/10/26 06:04:40;;;;;;;;;;;;;;;28.42;25.79;96340.84;4904049;29;19924;-96
2023/10/26 06:07:06;;;;;;;;;;;;;;;28.61;25.76;96350.44;4910947;29;20029;-96
2023/10/26 06:09:32;;;;;;;;;;;;;;;29.15;24.87;96351.16;4916161;29;19941;-96
2023/10/26 06:11:58;;;;;;;;;;;;;;;29.07;25.00;96367.06;4915669;29;19922;-96
2023/10/26 06:14:24;;;;;;;;;;;;;;;28.43;25.96;96358.53;4942916;29;19930;-96
2023/10/26 06:16:51;;;;;;;;;;;;;;;28.61;25.83;96358.16;4926791;29;20342;-96
2023/10/26 06:19:17;;;;;;;;;;;;;;;29.06;25.37;96351.38;4923649;29;19923;-96
2023/10/26 06:21:43;;;;;;;;;;;;;;;29.41;25.03;96336.84;4925539;29;19923;-96
2023/10/26 06:24:09;;;;;;;;;;;;;;;29.52;24.86;96333.28;4923581;29;20027;-96
2023/10/26 06:26:35;;;;;;;;;;;;;;;29.68;24.88;96332.50;4921951;29;20033;-96
2023/10/26 06:29:01;;;;;;;;;;;;;;;29.52;24.66;96333.28;4927044;29;19923;-96
2023/10/26 06:31:27;;;;;;;;;;;;;;;28.26;26.51;96329.44;4939886;29;19919;-96
2023/10/26 06:33:53;;;;;;;;;;;;;;;28.10;26.91;96316.00;4939529;29;19919;-96
2023/10/26 06:36:19;;;;;;;;;;;;;;;28.45;26.71;96305.94;4937306;29;20287;-96
2023/10/26 06:38:45;;;;;;;;;;;;;;;28.22;26.82;96300.66;4921004;29;19975;-96
2023/10/26 06:41:11;;;;;;;;;;;;;;;27.98;27.10;96293.31;4920157;29;19919;-96
2023/10/26 06:43:37;;;;;;;;;;;;;;;27.63;28.11;96286.41;4919654;29;20391;-96
2023/10/26 06:46:03;;;;;;;;;;;;;;;27.22;28.70;96288.59;4921604;29;20017;-96
2023/10/26 06:48:30;;;;;;;;;;;;;;;27.97;28.16;96303.06;4921194;29;19927;-96
2023/10/26 06:51:00;;;;;;;;;;;;;;;27.90;27.70;96300.72;4918102;29;19985;-96
2023/10/26 06:53:26;;;;;;;;;;;;;;;26.86;29.69;96300.53;4916934;29;19923;-96
2023/10/26 06:55:52;;;;;;;;;;;;;;;27.29;28.96;96303.00;4917602;29;19935;-96
2023/10/26 06:58:18;;;;;;;;;;;;;;;27.97;28.19;96297.44;4906442;29;19970;-96
2023/10/26 07:00:44;;;;;;;;;;;;;;;27.89;28.29;96295.59;4919457;29;20002;-96
2023/10/26 07:03:11;;;;;;;;;;;;;;;27.35;28.99;96288.97;4909261;29;20436;-96
2023/10/26 07:05:37;;;;;;;;;;;;;;;25.90;31.52;96296.94;4940618;29;20021;-96
2023/10/26 07:08:03;;;;;;;;;;;;;;;26.77;30.34;96295.81;4938895;29;19966;-96
2023/10/26 07:10:31;;;;;;;;;;;;;;;27.62;29.14;96301.78;4921442;29;19919;-96
2023/10/26 07:12:57;;;;;;;;;;;;;;;28.17;28.52;96287.31;4922164;29;20014;-96
2023/10/26 07:15:23;;;;;;;;;;;;;;;28.51;27.86;96274.91;4915096;29;20367;-96
2023/10/26 07:17:49;;;;;;;;;;;;;;;28.50;27.78;96291.06;4919180;29;19989;-96
2023/10/26 07:20:15;;;;;;;;;;;;;;;28.78;27.23;96277.06;4926026;29;20264;-96
2023/10/26 07:22:44;;;;;;;;;;;;;;;28.88;27.47;96284.03;4938851;29;19926;-94
2023/10/26 07:25:10;;;;;;;;;;;;;;;27.98;28.60;96296.13;4938291;29;19930;-93
2023/10/26 07:27:37;;;;;;;;;;;;;;;27.30;29.43;96282.03;4938128;29;19925;-94
2023/10/26 07:30:03;;;;;;;;;;;;;;;27.83;29.39;96289.13;4938429;29;19919;-94
2023/10/26 07:32:30;;;;;;;;;;;;;;;27.18;30.06;96288.84;4938172;29;19919;-92
2023/10/26 07:34:56;;;;;;;;;;;;;;;27.99;29.02;96285.66;4924208;29;19927;-93
2023/10/26 07:37:22;;;;;;;;;;;;;;;28.54;28.56;96285.19;4926603;29;20435;-94
2023/10/26 07:39:48;;;;;;;;;;;;;;;29.12;27.31;96281.53;4938382;29;19958;-94
2023/10/26 07:42:15;;;;;;;;;;;;;;;29.41;27.18;96275.41;4928418;29;20001;-94
2023/10/26 07:44:41;;;;;;;;;;;;;;;29.15;27.68;96272.00;4918613;29;20388;-94
2023/10/26 07:47:08;;;;;;;;;;;;;;;29.13;28.19;96268.16;4914236;29;20006;-95
2023/10/26 07:49:34;;;;;;;;;;;;;;;29.26;27.77;96272.06;4912914;29;19919;-95
2023/10/26 07:52:00;;;;;;;;;;;;;;;29.31;27.61;96274.13;4901840;29;19923;-93
2023/10/26 07:54:26;;;;;;;;;;;;;;;28.31;28.71;96267.38;4926977;29;20025;-94
2023/10/26 07:56:52;;;;;;;;;;;;;;;27.43;30.58;96276.00;4937613;29;20378;-94
2023/10/26 07:59:18;;;;;;;;;;;;;;;28.50;28.90;96262.06;4931949;29;20379;-93
2023/10/26 08:01:44;;;;;;;;;;;;;;;29.24;27.77;96257.66;4918651;29;19926;-93
2023/10/26 08:04:10;;;;;;;;;;;;;;;29.55;27.75;96258.69;4918600;29;20379;-93
2023/10/26 08:06:36;;;;;;;;;;;;;;;29.63;27.89;96254.06;4918572;29;19974;-94
2023/10/26 08:09:02;;;;;;;;;;;;;;;30.03;27.78;96276.94;4918373;29;19919;-94
2023/10/26 08:11:28;;;;;;;;;;;;;;;30.66;26.59;96281.91;4926925;29;20383;-93
2023/10/26 08:13:54;;;;;;;;;;;;;;;30.78;26.87;96289.06;4913887;29;19934;-96
2023/10/26 08:16:20;;;;;;;;;;;;;;;31.07;27.32;96294.09;4920330;29;19927;-93
2023/10/26 08:18:46;;;;;;;;;;;;;;;31.23;26.43;96301.72;4918440;29;20265;-94
2023/10/26 08:21:13;;;;;;;;;;;;;;;31.51;26.22;96298.72;4918551;29;20013;-93
2023/10/26 08:23:39;;;;;;;;;;;;;;;31.52;26.44;96291.75;4918298;29;19967;-94
2023/10/26 08:26:09;;;;;;;;;;;;;;;30.98;26.51;96299.28;4917858;29;19928;-93
2023/10/26 08:28:35;;;;;;;;;;;;;;;31.03;27.22;96290.78;4901727;29;19959;-93
2023/10/26 08:31:02;;;;;;;;;;;;;;;31.09;27.30;96290.72;4901255;29;19929;-93
2023/10/26 08:33:29;;;;;;;;;;;;;;;31.11;27.42;96282.47;4918027;29;19976;-94
2023/10/26 08:35:55;;;;;;;;;;;;;;;31.47;27.67;96278.38;4918058;29;19923;-93
2023/10/26 08:38:22;;;;;;;;;;;;;;;31.66;26.87;96281.31;4917740;29;19923;-93
2023/10/26 08:40:52;;;;;;;;;;;;;;;31.61;26.00;96265.88;4917994;29;19965;-92
2023/10/26 08:43:19;;;;;;;;;;;;;;;31.05;27.24;96268.34;4917205;29;19930;-93
2023/10/26 08:45:45;;;;;;;;;;;;;;;30.89;27.91;96266.38;4917313;29;19923;-93
2023/10/26 08:48:16;;;;;;;;;;;;;;;30.91;28.19;96268.66;4911396;29;19939;-92
2023/10/26 08:50:42;;;;;;;;;;;;;;;31.46;27.40;96271.16;4911081;29;20284;-92
2023/10/26 08:53:08;;;;;;;;;;;;;;;31.69;26.88;96281.03;4917623;29;19930;-92
2023/10/26 08:55:38;;;;;;;;;;;;;;;31.99;26.99;96284.66;4917322;29;19919;-92
2023/10/26 08:58:04;;;;;;;;;;;;;;;32.14;26.56;96283.50;4917555;29;19923;-94
2023/10/26 09:00:31;;;;;;;;;;;;;;;32.43;26.44;96294.00;4917036;29;20359;-92
2023/10/26 09:02:57;;;;;;;;;;;;;;;32.64;25.90;96289.41;4929834;29;19998;-92
2023/10/26 09:05:23;;;;;;;;;;;;;;;32.72;26.48;96290.34;4936791;29;20017;-92
2023/10/26 09:07:51;;;;;;;;;;;;;;;32.89;25.30;96287.25;4936394;29;19965;-92
2023/10/26 09:10:30;;;;;;;;;;;;;;;33.05;25.12;96283.47;4941529;29;19919;-92
2023/10/26 09:13:06;;;;;;;;;;;;;;;32.94;26.42;96289.25;4936509;29;19982;-93
2023/10/26 09:15:48;;;;;;;;;;;;;;;33.06;26.22;96274.41;4933475;29;20026;-91
2023/10/26 09:18:17;;;;;;;;;;;;;;;33.17;25.63;96276.28;4900086;29;20348;-92
2023/10/26 09:20:59;;;;;;;;;;;;;;;33.06;25.77;96271.56;4935966;29;20312;-92
2023/10/26 09:23:28;;;;;;;;;;;;;;;33.05;25.40;96272.09;4908846;29;19926;-92
2023/10/26 09:25:58;;;;;;;;;;;;;;;33.13;24.51;96264.47;4917056;29;19923;-92
2023/10/26 09:28:24;;;;;;;;;;;;;;;33.07;24.38;96266.63;4917425;29;19919;-92
2023/10/26 09:30:56;;;;;;;;;;;;;;;32.71;25.44;96274.56;4917918;29;19923;-91
2023/10/26 09:33:25;;;;;;;;;;;;;;;32.56;24.65;96265.72;4917351;29;19919;-91
2023/10/26 09:35:52;;;;;;;;;;;;;;;32.54;25.69;96263.41;4924189;29;19922;-92
2023/10/26 09:38:37;;;;;;;;;;;;;;;32.51;25.23;96267.31;4940033;29;19919;-91
2023/10/26 09:41:05;;;;;;;;;;;;;;;32.71;25.21;96263.97;4940528;29;19941;-92
2023/10/26 09:43:31;;;;;;;;;;;;;;;32.60;25.01;96266.19;4935695;29;19923;-93
2023/10/26 09:45:57;;;;;;;;;;;;;;;32.68;25.11;96267.13;4904000;29;20025;-93
2023/10/26 09:48:25;;;;;;;;;;;;;;;32.79;25.06;96264.16;4902616;29;20442;-91
2023/10/26 09:50:51;;;;;;;;;;;;;;;32.95;25.36;96266.00;4915188;29;19919;-91
2023/10/26 09:53:20;;;;;;;;;;;;;;;32.73;25.69;96263.44;4921549;29;19919;-91
2023/10/26 09:55:47;;;;;;;;;;;;;;;32.89;25.98;96253.91;4920611;29;19930;-93
2023/10/26 09:58:15;;;;;;;;;;;;;;;33.23;24.77;96254.25;4916052;29;19923;-92
2023/10/26 10:00:42;;;;;;;;;;;;;;;32.86;25.51;96249.28;4919994;29;20380;-93
2023/10/26 10:03:08;;;;;;;;;;;;;;;32.69;25.44;96251.63;4920940;29;20364;-91
2023/10/26 10:05:36;;;;;;;;;;;;;;;32.56;25.06;96243.75;4920412;29;19923;-90
2023/10/26 10:08:02;;;;;;;;;;;;;;;32.32;25.15;96240.94;4920536;29;19966;-92
2023/10/26 10:10:28;;;;;;;;;;;;;;;32.05;25.44;96227.81;4929393;29;20450;-93
2023/10/26 10:12:54;;;;;;;;;;;;;;;32.06;24.92;96235.81;4939703;29;19919;-92
2023/10/26 10:15:38;;;;;;;;;;;;;;;31.82;25.60;96227.25;4921021;29;19919;-92
2023/10/26 10:18:07;;;;;;;;;;;;;;;31.61;24.56;96225.38;4920559;29;19934;-93
2023/10/26 10:20:34;;;;;;;;;;;;;;;30.97;25.39;96221.97;4920571;29;19967;-92
2023/10/26 10:23:01;;;;;;;;;;;;;;;30.55;25.88;96231.72;4909565;29;19952;-91
2023/10/26 10:25:46;;;;;;;;;;;;;;;30.96;25.94;96231.81;4902184;29;19966;-90
2023/10/26 10:28:12;;;;;;;;;;;;;;;30.45;25.81;96230.50;4920772;29;19926;-89
2023/10/26 10:30:55;;;;;;;;;;;;;;;31.14;25.81;96227.53;4919603;29;20010;-89
2023/10/26 10:33:23;;;;;;;;;;;;;;;31.14;25.54;96231.16;4920536;29;19919;-92
2023/10/26 10:36:00;;;;;;;;;;;;;;;31.36;24.77;96239.50;4920187;29;19967;-92
2023/10/26 10:38:26;;;;;;;;;;;;;;;30.66;25.49;96237.34;4920240;29;20387;-91
2023/10/26 10:40:57;;;;;;;;;;;;;;;31.00;26.07;96235.13;4920416;29;19915;-91
2023/10/26 10:43:46;;;;;;;;;;;;;;;30.79;26.17;96242.44;4902889;29;19927;-91
2023/10/26 10:46:13;;;;;;;;;;;;;;;30.46;27.00;96229.19;4900327;29;19919;-91
2023/10/26 10:48:59;;;;;;;;;;;;;;;31.09;26.04;96217.00;4902195;29;19927;-92
2023/10/26 10:51:34;;;;;;;;;;;;;;;31.38;29.13;96217.06;4901522;29;19926;-93
2023/10/26 10:54:02;;;;;;;;;;;;;;;31.07;25.60;96228.09;4901178;29;19924;-92
2023/10/26 10:56:34;;;;;;;;;;;;;;;31.63;24.80;96225.63;4901163;29;19920;-92
2023/10/26 10:59:00;;;;;;;;;;;;;;;31.95;24.45;96215.25;4915167;29;19919;-92
2023/10/26 11:01:27;;;;;;;;;;;;;;;31.76;24.52;96206.69;4919797;29;19923;-92
2023/10/26 11:04:02;;;;;;;;;;;;;;;31.97;23.88;96221.94;4919541;29;19923;-90
2023/10/26 11:06:28;;;;;;;;;;;;;;;31.48;23.88;96214.69;4919813;29;19919;-91
2023/10/26 11:08:54;;;;;;;;;;;;;;;32.18;24.18;96218.63;4919903;29;19923;-91
2023/10/26 11:11:26;;;;;;;;;;;;;;;32.22;23.50;96204.91;4919728;29;20336;-91
2023/10/26 11:14:10;;;;;;;;;;;;;;;31.76;24.23;96215.19;4919908;29;19920;-90
2023/10/26 11:16:37;;;;;;;;;;;;;;;31.91;24.49;96214.75;4919173;29;19919;-91
2023/10/26 11:19:03;;;;;;;;;;;;;;;31.42;24.95;96220.38;4932552;29;19931;-90
2023/10/26 11:21:29;;;;;;;;;;;;;;;31.05;24.73;96217.31;4938986;29;19923;-94
2023/10/26 11:23:55;;;;;;;;;;;;;;;31.45;24.00;96221.41;4902616;29;20010;-93
2023/10/26 11:26:21;;;;;;;;;;;;;;;30.97;24.53;96224.06;4901553;29;20014;-91
2023/10/26 11:28:47;;;;;;;;;;;;;;;30.95;23.49;96224.56;4900923;29;19919;-92
2023/10/26 11:31:13;;;;;;;;;;;;;;;31.00;24.25;96231.50;4900696;29;19922;-94
2023/10/26 11:33:39;;;;;;;;;;;;;;;30.72;24.34;96223.16;4900359;29;20380;-90
2023/10/26 11:36:09;;;;;;;;;;;;;;;31.48;23.78;96226.03;4915054;29;20358;-89
2023/10/26 11:38:44;;;;;;;;;;;;;;;32.27;23.86;96232.47;4919241;29;19925;-91
2023/10/26 11:41:10;;;;;;;;;;;;;;;32.33;22.98;96236.00;4919399;29;19919;-91
2023/10/26 11:43:37;;;;;;;;;;;;;;;31.87;24.07;96228.50;4919675;29;19922;-92
2023/10/26 11:46:03;;;;;;;;;;;;;;;31.06;24.05;96229.41;4919609;29;19926;-93
2023/10/26 11:48:31;;;;;;;;;;;;;;;31.11;23.63;96220.09;4909507;29;19932;-89
2023/10/26 11:50:57;;;;;;;;;;;;;;;30.87;23.69;96223.59;4918969;29;20372;-88
2023/10/26 11:53:24;;;;;;;;;;;;;;;30.72;23.38;96223.91;4919324;29;20010;-89
2023/10/26 11:55:50;;;;;;;;;;;;;;;29.82;24.65;96232.47;4918409;29;19929;-92
2023/10/26 11:58:16;;;;;;;;;;;;;;;30.23;24.30;96236.22;4917764;29;19926;-90
2023/10/26 12:00:42;;;;;;;;;;;;;;;30.46;23.96;96236.91;4918670;29;19923;-93
2023/10/26 12:03:09;;;;;;;;;;;;;;;30.40;23.93;96236.19;4918339;29;19941;-89
2023/10/26 12:05:35;;;;;;;;;;;;;;;30.66;23.91;96240.19;4918285;29;19978;-89
2023/10/26 12:08:01;;;;;;;;;;;;;;;31.21;23.00;96232.66;4918477;29;19923;-90
2023/10/26 12:10:28;;;;;;;;;;;;;;;31.41;22.72;96230.16;4922966;29;19923;-89
2023/10/26 12:12:57;;;;;;;;;;;;;;;31.23;23.33;96221.53;4908646;29;20320;-89
2023/10/26 12:15:23;;;;;;;;;;;;;;;31.74;22.38;96231.97;4908993;29;20014;-90
2023/10/26 12:17:49;;;;;;;;;;;;;;;31.50;22.83;96234.78;4899182;29;19975;-90
2023/10/26 12:20:15;;;;;;;;;;;;;;;31.21;22.83;96238.31;4899477;29;19923;-91
2023/10/26 12:22:41;;;;;;;;;;;;;;;31.30;22.64;96227.41;4907728;29;19973;-89
2023/10/26 12:25:08;;;;;;;;;;;;;;;30.75;23.71;96224.94;4918517;29;19919;-91
2023/10/26 12:27:34;;;;;;;;;;;;;;;31.53;23.18;96232.94;4935030;29;20062;-90
2023/10/26 12:30:00;;;;;;;;;;;;;;;32.06;22.46;96241.50;4935174;29;19926;-91
2023/10/26 12:32:26;;;;;;;;;;;;;;;32.69;21.91;96232.50;4911720;29;19923;-91
2023/10/26 12:34:52;;;;;;;;;;;;;;;32.99;21.97;96228.72;4912700;29;20059;-89
2023/10/26 12:37:18;;;;;;;;;;;;;;;32.75;21.32;96235.25;4900608;29;19974;-89
2023/10/26 12:39:45;;;;;;;;;;;;;;;32.34;22.00;96226.19;4918167;29;20009;-92
2023/10/26 12:42:11;;;;;;;;;;;;;;;32.28;21.33;96231.19;4901123;29;20337;-89
2023/10/26 12:44:37;;;;;;;;;;;;;;;32.32;22.18;96234.47;4917538;29;19919;-90
2023/10/26 12:47:03;;;;;;;;;;;;;;;31.91;22.12;96241.09;4917800;29;19919;-92